createdAt,value
2019-05-09T00:01:03.969Z,13.22
2019-05-09T00:03:33.450Z,13.80
2019-05-09T00:06:04.463Z,13.37
2019-05-09T00:08:33.508Z,13.13
2019-05-09T00:11:03.738Z,13.58
2019-05-09T00:16:03.651Z,14.18
2019-05-09T00:18:33.632Z,14.00
2019-05-09T00:21:04.210Z,14.65
2019-05-09T00:23:33.249Z,14.00
2019-05-09T00:26:04.017Z,13.90
2019-05-09T00:28:35.983Z,11.83
2019-05-09T00:31:14.298Z,13.15
2019-05-09T00:33:47.802Z,12.33
2019-05-09T00:36:14.514Z,11.25
2019-05-09T00:38:44.825Z,11.63
2019-05-09T00:41:14.019Z,10.13
2019-05-09T00:43:44.312Z,9.95
2019-05-09T00:46:14.356Z,10.88
2019-05-09T00:48:53.409Z,10.27
2019-05-09T00:51:23.312Z,10.20
2019-05-09T00:53:53.676Z,9.98
2019-05-09T00:56:23.972Z,9.98
2019-05-09T00:58:53.535Z,9.95
2019-05-09T01:01:23.950Z,10.77
2019-05-09T01:03:53.585Z,9.45
2019-05-09T01:06:23.874Z,9.75
2019-05-09T01:08:53.650Z,9.60
2019-05-09T01:11:24.289Z,10.40
2019-05-09T01:13:54.383Z,10.85
2019-05-09T01:16:24.126Z,11.03
2019-05-09T01:21:24.069Z,11.08
2019-05-09T01:23:53.988Z,11.10
2019-05-09T01:26:23.984Z,10.85
2019-05-09T01:28:53.973Z,11.10
2019-05-09T01:31:24.107Z,10.43
2019-05-09T01:33:57.430Z,11.53
2019-05-09T01:36:27.505Z,11.33
2019-05-09T01:38:55.925Z,11.00
2019-05-09T01:41:30.654Z,10.53
2019-05-09T01:43:54.505Z,11.53
2019-05-09T01:46:23.604Z,11.12
2019-05-09T01:48:53.868Z,11.20
2019-05-09T01:51:23.301Z,11.40
2019-05-09T01:53:53.797Z,10.75
2019-05-09T01:56:23.507Z,10.72
2019-05-09T02:01:23.961Z,10.60
2019-05-09T02:03:53.740Z,11.35
2019-05-09T02:06:24.335Z,11.65
2019-05-09T02:08:54.575Z,11.43
2019-05-09T02:11:23.852Z,12.35
2019-05-09T02:13:53.472Z,11.65
2019-05-09T02:16:26.158Z,11.93
2019-05-09T02:19:04.018Z,13.30
2019-05-09T02:21:34.366Z,12.15
2019-05-09T02:24:03.312Z,13.38
2019-05-09T02:26:33.488Z,14.25
2019-05-09T02:29:03.251Z,13.70
2019-05-09T02:31:35.108Z,15.28
2019-05-09T02:34:04.568Z,15.50
2019-05-09T02:36:32.250Z,17.80
2019-05-09T02:39:00.680Z,16.80
2019-05-09T02:41:29.125Z,17.57
2019-05-09T02:43:58.521Z,18.98
2019-05-09T02:46:38.657Z,18.27
2019-05-09T02:49:08.750Z,18.75
2019-05-09T02:51:38.677Z,19.25
2019-05-09T02:56:38.599Z,20.08
2019-05-09T02:59:09.660Z,20.87
2019-05-09T03:01:58.563Z,20.15
2019-05-09T03:04:28.467Z,22.30
2019-05-09T03:06:59.779Z,22.50
2019-05-09T03:09:28.680Z,23.00
2019-05-09T03:11:58.942Z,24.27
2019-05-09T03:16:58.592Z,25.37
2019-05-09T03:19:29.655Z,24.92
2019-05-09T03:22:04.893Z,25.90
2019-05-09T03:24:33.325Z,26.57
2019-05-09T03:27:03.421Z,24.82
2019-05-09T03:29:33.474Z,26.85
2019-05-09T03:32:01.905Z,24.70
2019-05-09T03:34:30.440Z,25.02
2019-05-09T03:36:58.855Z,26.37
2019-05-09T03:39:27.724Z,27.30
2019-05-09T03:41:57.473Z,26.07
2019-05-09T03:46:57.926Z,27.13
2019-05-09T03:49:25.492Z,27.52
2019-05-09T03:51:53.921Z,27.00
2019-05-09T03:54:22.354Z,28.02
2019-05-09T03:57:07.785Z,29.27
2019-05-09T03:59:38.121Z,29.15
2019-05-09T04:02:09.960Z,29.82
2019-05-09T04:07:04.109Z,31.70
2019-05-09T04:09:32.542Z,31.52
2019-05-09T04:12:01.033Z,30.90
2019-05-09T04:14:31.070Z,30.95
2019-05-09T04:16:59.574Z,32.00
2019-05-09T04:19:28.280Z,35.83
2019-05-09T04:21:57.609Z,31.07
2019-05-09T04:24:28.050Z,29.40
2019-05-09T04:29:38.057Z,31.77
2019-05-09T04:32:07.956Z,32.23
2019-05-09T04:34:38.114Z,30.02
2019-05-09T04:37:08.028Z,32.10
2019-05-09T04:39:38.614Z,31.20
2019-05-09T04:42:08.301Z,30.52
2019-05-09T04:44:38.813Z,32.08
2019-05-09T04:47:08.751Z,29.75
2019-05-09T04:49:40.948Z,31.82
2019-05-09T04:52:07.785Z,32.33
2019-05-09T04:54:38.422Z,30.85
2019-05-09T04:57:07.755Z,32.05
2019-05-09T04:59:37.374Z,31.97
2019-05-09T05:02:27.607Z,32.30
2019-05-09T05:04:58.393Z,32.78
2019-05-09T05:07:28.540Z,32.23
2019-05-09T05:12:27.774Z,33.15
2019-05-09T05:14:57.980Z,34.38
2019-05-09T05:17:30.240Z,34.73
2019-05-09T05:19:58.053Z,35.83
2019-05-09T05:22:39.893Z,36.68
2019-05-09T05:25:09.265Z,36.70
2019-05-09T05:27:38.321Z,35.83
2019-05-09T05:30:07.751Z,34.88
2019-05-09T05:32:43.461Z,35.52
2019-05-09T05:35:14.600Z,37.05
2019-05-09T05:37:44.065Z,37.34
2019-05-09T05:40:12.960Z,37.83
2019-05-09T05:42:44.582Z,38.50
2019-05-09T05:45:13.214Z,37.93
2019-05-09T05:47:48.398Z,41.28
2019-05-09T05:50:17.673Z,36.80
2019-05-09T05:52:47.553Z,39.75
2019-05-09T05:55:18.196Z,40.50
2019-05-09T05:57:47.817Z,40.00
2019-05-09T06:00:19.188Z,43.33
2019-05-09T06:02:47.967Z,42.00
2019-05-09T06:05:18.676Z,41.28
2019-05-09T06:07:48.347Z,43.83
2019-05-09T06:10:18.623Z,42.58
2019-05-09T06:12:48.173Z,42.53
2019-05-09T06:15:18.404Z,43.52
2019-05-09T06:17:48.386Z,43.40
2019-05-09T06:20:17.866Z,42.30
2019-05-09T06:22:47.694Z,44.13
2019-05-09T06:25:20.200Z,43.13
2019-05-09T06:27:48.260Z,42.80
2019-05-09T06:30:30.456Z,42.33
2019-05-09T06:32:59.731Z,40.78
2019-05-09T06:35:28.694Z,41.05
2019-05-09T06:37:58.755Z,41.23
2019-05-09T06:40:28.737Z,42.23
2019-05-09T06:42:59.354Z,41.02
2019-05-09T06:45:44.532Z,41.02
2019-05-09T06:48:14.231Z,42.95
2019-05-09T06:50:42.663Z,40.73
2019-05-09T06:53:11.085Z,40.63
2019-05-09T06:55:39.524Z,41.70
2019-05-09T06:58:27.583Z,41.83
2019-05-09T07:00:58.446Z,45.50
2019-05-09T07:03:34.811Z,45.15
2019-05-09T07:06:04.889Z,43.78
2019-05-09T07:08:38.080Z,47.95
2019-05-09T07:11:07.596Z,44.48
2019-05-09T07:13:38.218Z,47.07
2019-05-09T07:16:08.352Z,46.73
2019-05-09T07:18:38.292Z,49.38
2019-05-09T07:21:08.214Z,48.75
2019-05-09T07:23:37.411Z,52.08
2019-05-09T07:26:19.256Z,50.43
2019-05-09T07:28:48.748Z,50.88
2019-05-09T07:31:18.868Z,50.67
2019-05-09T07:33:51.635Z,50.03
2019-05-09T07:36:20.134Z,46.42
2019-05-09T07:38:48.730Z,44.65
2019-05-09T07:41:17.772Z,46.80
2019-05-09T07:43:47.816Z,48.43
2019-05-09T07:46:18.136Z,43.60
2019-05-09T07:48:48.437Z,44.53
2019-05-09T07:53:48.162Z,43.63
2019-05-09T07:56:18.624Z,44.53
2019-05-09T07:58:47.779Z,43.35
2019-05-09T08:01:18.811Z,45.30
2019-05-09T08:03:48.817Z,42.88
2019-05-09T08:06:18.373Z,44.70
2019-05-09T08:08:47.655Z,45.05
2019-05-09T08:11:18.041Z,42.83
2019-05-09T08:13:48.618Z,42.48
2019-05-09T08:16:18.609Z,42.05
2019-05-09T08:18:48.344Z,40.83
2019-05-09T08:21:18.097Z,38.20
2019-05-09T08:23:48.600Z,39.00
2019-05-09T08:26:18.884Z,37.03
2019-05-09T08:28:47.988Z,38.98
2019-05-09T08:31:17.839Z,38.95
2019-05-09T08:33:48.516Z,38.90
2019-05-09T08:36:18.003Z,38.73
2019-05-09T08:41:18.425Z,36.85
2019-05-09T08:43:48.351Z,36.85
2019-05-09T08:46:18.181Z,36.77
2019-05-09T08:48:48.551Z,34.48
2019-05-09T08:51:18.282Z,34.30
2019-05-09T08:53:48.208Z,33.45
2019-05-09T08:56:17.807Z,35.48
2019-05-09T08:58:48.540Z,34.77
2019-05-09T09:01:27.416Z,35.58
2019-05-09T09:03:48.421Z,32.83
2019-05-09T09:06:18.387Z,31.55
2019-05-09T09:08:48.316Z,30.10
2019-05-09T09:11:18.734Z,28.95
2019-05-09T09:13:48.305Z,28.50
2019-05-09T09:16:22.064Z,28.75
2019-05-09T09:18:48.063Z,29.15
2019-05-09T09:21:18.278Z,28.57
2019-05-09T09:26:18.349Z,28.87
2019-05-09T09:28:48.476Z,28.65
2019-05-09T09:31:18.002Z,30.43
2019-05-09T09:36:17.898Z,27.20
2019-05-09T09:38:48.073Z,26.20
2019-05-09T09:41:18.207Z,24.25
2019-05-09T09:43:47.628Z,25.75
2019-05-09T09:46:18.252Z,24.32
2019-05-09T09:48:48.040Z,23.70
2019-05-09T09:53:48.688Z,22.73
2019-05-09T09:56:17.837Z,24.00
2019-05-09T09:58:48.366Z,24.20
2019-05-09T10:03:53.299Z,22.62
2019-05-09T10:06:28.486Z,21.35
2019-05-09T10:08:58.056Z,22.10
2019-05-09T10:11:28.632Z,22.42
2019-05-09T10:13:58.431Z,21.82
2019-05-09T10:16:32.707Z,21.95
2019-05-09T10:19:08.605Z,22.00
2019-05-09T10:21:44.393Z,21.73
2019-05-09T10:24:12.822Z,23.20
2019-05-09T10:26:42.899Z,21.23
2019-05-09T10:29:11.323Z,21.62
2019-05-09T10:31:39.763Z,19.40
2019-05-09T10:34:10.987Z,18.13
2019-05-09T10:36:38.528Z,17.17
2019-05-09T10:39:08.301Z,17.77
2019-05-09T10:41:37.616Z,17.52
2019-05-09T10:44:08.482Z,16.55
2019-05-09T10:46:52.843Z,15.30
2019-05-09T10:49:09.475Z,14.40
2019-05-09T10:51:37.916Z,14.65
2019-05-09T10:54:08.192Z,14.80
2019-05-09T10:56:38.429Z,13.18
2019-05-09T10:59:07.833Z,14.03
2019-05-09T11:01:38.180Z,13.55
2019-05-09T11:04:08.141Z,11.48
2019-05-09T11:06:38.289Z,11.22
2019-05-09T11:09:09.236Z,12.18
2019-05-09T11:11:38.046Z,11.50
2019-05-09T11:14:08.631Z,11.20
2019-05-09T11:19:07.976Z,9.20
2019-05-09T11:24:03.841Z,9.50
2019-05-09T11:26:32.283Z,9.13
2019-05-09T11:29:00.752Z,10.70
2019-05-09T11:31:29.777Z,9.60
2019-05-09T11:33:58.273Z,9.97
2019-05-09T11:36:26.687Z,7.50
2019-05-09T11:38:55.197Z,8.80
2019-05-09T11:41:23.618Z,7.60
2019-05-09T11:43:52.056Z,6.97
2019-05-09T11:46:20.466Z,7.30
2019-05-09T11:48:48.920Z,7.15
2019-05-09T11:51:20.352Z,7.15
2019-05-09T11:53:48.646Z,6.25
2019-05-09T11:56:17.965Z,7.17
2019-05-09T11:58:48.086Z,7.33
2019-05-09T12:03:49.910Z,7.20
2019-05-09T12:08:48.093Z,6.37
2019-05-09T12:13:45.191Z,6.20
2019-05-09T12:16:13.640Z,6.10
2019-05-09T12:18:42.067Z,5.97
2019-05-09T12:21:10.507Z,5.37
2019-05-09T12:23:38.936Z,5.80
2019-05-09T12:26:08.255Z,5.45
2019-05-09T12:28:38.670Z,4.83
2019-05-09T12:31:07.865Z,4.85
2019-05-09T12:36:04.776Z,4.70
2019-05-09T12:38:33.268Z,4.83
2019-05-09T12:41:01.681Z,4.75
2019-05-09T12:43:30.098Z,4.55
2019-05-09T12:45:58.521Z,4.70
2019-05-09T12:48:27.965Z,4.65
2019-05-09T12:50:58.629Z,4.80
2019-05-09T12:53:27.985Z,4.55
2019-05-09T12:56:02.624Z,4.28
2019-05-09T12:58:31.327Z,4.53
2019-05-09T13:01:00.417Z,4.50
2019-05-09T13:03:29.599Z,4.10
2019-05-09T13:05:58.346Z,5.00
2019-05-09T13:08:27.801Z,4.43
2019-05-09T13:10:58.309Z,5.10
2019-05-09T13:13:30.260Z,4.60
2019-05-09T13:19:00.245Z,4.95
2019-05-09T13:21:32.333Z,4.72
2019-05-09T13:23:58.794Z,4.70
2019-05-09T13:26:28.913Z,5.10
2019-05-09T13:28:58.900Z,4.70
2019-05-09T13:31:29.506Z,5.00
2019-05-09T13:33:58.528Z,4.50
2019-05-09T13:36:28.446Z,4.83
2019-05-09T13:39:04.396Z,5.37
2019-05-09T13:43:59.247Z,4.78
2019-05-09T13:49:10.010Z,4.87
2019-05-09T13:51:23.396Z,4.45
2019-05-09T13:53:51.844Z,4.45
2019-05-09T13:56:20.256Z,4.35
2019-05-09T13:58:48.875Z,4.33
2019-05-09T14:01:17.706Z,4.30
2019-05-09T14:03:48.799Z,4.85
2019-05-09T14:08:44.233Z,3.90
2019-05-09T14:11:12.672Z,4.10
2019-05-09T14:13:41.099Z,4.35
2019-05-09T14:16:19.836Z,4.40
2019-05-09T14:18:39.710Z,4.40
2019-05-09T14:21:08.123Z,4.25
2019-05-09T14:23:46.649Z,4.00
2019-05-09T14:28:45.202Z,4.33
2019-05-09T14:31:13.629Z,4.80
2019-05-09T14:33:42.044Z,4.20
2019-05-09T14:36:10.495Z,4.45
2019-05-09T14:38:39.310Z,4.50
2019-05-09T14:41:07.927Z,4.15
2019-05-09T14:43:39.334Z,4.40
2019-05-09T14:48:35.848Z,4.73
2019-05-09T14:51:04.309Z,4.55
2019-05-09T14:53:32.723Z,4.40
2019-05-09T14:56:01.516Z,4.37
2019-05-09T14:58:29.948Z,4.40
2019-05-09T15:01:00.812Z,4.28
2019-05-09T15:03:28.526Z,4.20
2019-05-09T15:05:57.475Z,4.30
2019-05-09T15:08:27.960Z,4.40
2019-05-09T15:10:58.257Z,4.67
2019-05-09T15:13:28.539Z,4.10
2019-05-09T15:15:57.861Z,4.22
2019-05-09T15:18:26.613Z,4.60
2019-05-09T15:20:55.054Z,4.72
2019-05-09T15:23:23.460Z,4.20
2019-05-09T15:25:51.936Z,4.85
2019-05-09T15:28:20.308Z,4.45
2019-05-09T15:30:49.043Z,4.60
2019-05-09T15:33:17.745Z,4.63
2019-05-09T15:35:48.571Z,4.60
2019-05-09T15:40:48.120Z,4.47
2019-05-09T15:43:18.344Z,4.58
2019-05-09T15:48:15.291Z,4.10
2019-05-09T15:50:43.714Z,4.00
2019-05-09T15:53:12.151Z,4.40
2019-05-09T15:55:40.598Z,4.70
2019-05-09T15:58:09.017Z,4.30
2019-05-09T16:00:38.647Z,4.62
2019-05-09T16:03:07.164Z,4.35
2019-05-09T16:05:38.555Z,4.55
2019-05-09T16:08:09.031Z,4.37
2019-05-09T16:13:07.980Z,4.57
2019-05-09T16:15:38.198Z,4.00
2019-05-09T16:20:38.451Z,4.72
2019-05-09T16:23:08.426Z,4.70
2019-05-09T16:25:38.538Z,4.20
2019-05-09T16:30:38.063Z,4.35
2019-05-09T16:33:08.030Z,4.28
2019-05-09T16:38:09.753Z,4.25
2019-05-09T16:40:35.721Z,4.97
2019-05-09T16:43:04.252Z,5.53
2019-05-09T16:45:32.693Z,4.40
2019-05-09T16:48:01.187Z,5.87
2019-05-09T16:50:29.588Z,4.83
2019-05-09T16:52:58.563Z,4.20
2019-05-09T16:55:34.766Z,4.55
2019-05-09T16:58:03.188Z,3.80
2019-05-09T17:00:34.471Z,3.90
2019-05-09T17:03:02.972Z,4.30
2019-05-09T17:05:31.591Z,4.12
2019-05-09T17:08:00.086Z,4.10
2019-05-09T17:10:28.515Z,4.15
2019-05-09T17:12:58.217Z,4.20
2019-05-09T17:15:29.158Z,4.35
2019-05-09T17:20:29.173Z,4.10
2019-05-09T17:23:14.189Z,4.10
2019-05-09T17:25:38.587Z,4.20
2019-05-09T17:28:07.163Z,4.05
2019-05-09T17:30:38.390Z,4.60
2019-05-09T17:33:07.862Z,4.45
2019-05-09T17:35:38.667Z,4.00
2019-05-09T17:38:08.701Z,4.17
2019-05-09T17:40:39.074Z,4.17
2019-05-09T17:43:08.340Z,4.37
2019-05-09T17:45:41.783Z,4.50
2019-05-09T17:48:08.601Z,5.37
2019-05-09T17:50:38.420Z,4.50
2019-05-09T17:55:38.091Z,4.90
2019-05-09T17:58:08.787Z,4.70
2019-05-09T18:00:38.051Z,5.20
2019-05-09T18:03:06.583Z,5.00
2019-05-09T18:05:35.965Z,5.03
2019-05-09T18:08:07.842Z,5.50
2019-05-09T18:10:37.790Z,5.20
2019-05-09T18:13:07.871Z,5.10
2019-05-09T18:15:37.990Z,5.30
2019-05-09T18:18:06.997Z,4.87
2019-05-09T18:20:37.679Z,5.17
2019-05-09T18:23:07.992Z,5.15
2019-05-09T18:28:05.427Z,5.83
2019-05-09T18:30:33.862Z,5.40
2019-05-09T18:33:09.939Z,5.77
2019-05-09T18:35:38.350Z,5.45
2019-05-09T18:38:08.028Z,5.08
2019-05-09T18:40:36.498Z,5.65
2019-05-09T18:43:04.970Z,5.50
2019-05-09T18:45:33.399Z,5.37
2019-05-09T18:48:01.822Z,5.10
2019-05-09T18:50:30.258Z,5.22
2019-05-09T18:52:58.680Z,5.27
2019-05-09T18:55:27.123Z,6.25
2019-05-09T18:57:55.539Z,5.72
2019-05-09T19:00:26.603Z,5.87
2019-05-09T19:02:55.117Z,6.57
2019-05-09T19:05:23.658Z,5.85
2019-05-09T19:07:56.560Z,5.67
2019-05-09T19:10:28.362Z,5.40
2019-05-09T19:12:56.816Z,5.87
2019-05-09T19:15:28.143Z,5.62
2019-05-09T19:17:58.228Z,6.00
2019-05-09T19:20:43.547Z,6.10
2019-05-09T19:23:12.052Z,5.87
2019-05-09T19:25:40.536Z,7.10
2019-05-09T19:28:08.976Z,5.85
2019-05-09T19:30:37.396Z,6.22
2019-05-09T19:33:05.870Z,6.10
2019-05-09T19:35:34.255Z,5.65
2019-05-09T19:38:02.675Z,6.87
2019-05-09T19:40:31.104Z,7.03
2019-05-09T19:42:59.521Z,7.40
2019-05-09T19:45:28.045Z,7.62
2019-05-09T19:47:56.445Z,7.40
2019-05-09T19:50:24.878Z,7.30
2019-05-09T19:52:53.290Z,6.47
2019-05-09T19:55:21.736Z,6.97
2019-05-09T19:57:50.157Z,6.77
2019-05-09T20:00:19.059Z,6.45
2019-05-09T20:02:47.482Z,6.62
2019-05-09T20:05:16.024Z,6.85
2019-05-09T20:07:44.814Z,7.82
2019-05-09T20:10:17.952Z,6.97
2019-05-09T20:13:04.169Z,7.78
2019-05-09T20:15:32.653Z,7.20
2019-05-09T20:18:01.176Z,7.40
2019-05-09T20:20:29.653Z,6.85
2019-05-09T20:22:58.069Z,8.07
2019-05-09T20:25:26.501Z,7.37
2019-05-09T20:27:54.969Z,7.33
2019-05-09T20:30:23.383Z,7.15
2019-05-09T20:32:51.815Z,8.00
2019-05-09T20:35:20.234Z,7.78
2019-05-09T20:37:48.885Z,7.03
2019-05-09T20:40:17.594Z,7.53
2019-05-09T20:42:46.276Z,7.25
2019-05-09T20:45:14.874Z,6.33
2019-05-09T20:47:43.516Z,7.05
2019-05-09T20:50:12.484Z,6.17
2019-05-09T20:52:41.159Z,6.90
2019-05-09T20:55:11.269Z,6.67
2019-05-09T20:57:39.895Z,6.70
2019-05-09T21:00:08.586Z,6.65
2019-05-09T21:02:37.188Z,6.60
2019-05-09T21:05:06.964Z,5.80
2019-05-09T21:07:35.564Z,5.80
2019-05-09T21:10:08.193Z,5.30
2019-05-09T21:12:36.791Z,6.08
2019-05-09T21:15:07.588Z,5.75
2019-05-09T21:17:36.135Z,5.58
2019-05-09T21:20:06.288Z,5.95
2019-05-09T21:22:34.925Z,5.70
2019-05-09T21:25:04.204Z,4.85
2019-05-09T21:27:32.819Z,5.28
2019-05-09T21:30:01.444Z,5.30
2019-05-09T21:32:30.041Z,5.50
2019-05-09T21:34:58.459Z,6.05
2019-05-09T21:37:26.893Z,5.30
2019-05-09T21:39:55.311Z,5.70
2019-05-09T21:42:23.776Z,4.95
2019-05-09T21:44:52.204Z,6.00
2019-05-09T21:47:20.655Z,5.87
2019-05-09T21:49:49.089Z,5.22
2019-05-09T21:52:17.506Z,5.15
2019-05-09T21:54:45.982Z,5.20
2019-05-09T21:57:14.388Z,5.78
2019-05-09T21:59:42.819Z,5.33
2019-05-09T22:02:11.875Z,5.28
2019-05-09T22:04:40.320Z,5.62
2019-05-09T22:07:08.764Z,6.10
2019-05-09T22:09:37.268Z,5.75
2019-05-09T22:12:06.538Z,5.80
2019-05-09T22:14:34.953Z,5.97
2019-05-09T22:17:05.337Z,5.45
2019-05-09T22:22:01.470Z,5.40
2019-05-09T22:24:29.902Z,5.62
2019-05-09T22:26:58.338Z,6.95
2019-05-09T22:29:27.034Z,6.05
2019-05-09T22:31:55.485Z,5.78
2019-05-09T22:34:23.901Z,5.03
2019-05-09T22:36:52.326Z,6.40
2019-05-09T22:39:20.769Z,5.75
2019-05-09T22:41:49.206Z,5.72
2019-05-09T22:44:17.644Z,6.78
2019-05-09T22:46:46.079Z,5.53
2019-05-09T22:49:14.512Z,5.53
2019-05-09T22:51:42.925Z,5.92
2019-05-09T22:54:13.015Z,6.30
2019-05-09T22:56:41.821Z,5.95
2019-05-09T22:59:10.263Z,6.20
2019-05-09T23:01:38.693Z,6.62
2019-05-09T23:04:07.130Z,6.62
2019-05-09T23:06:35.558Z,5.90
2019-05-09T23:09:05.336Z,5.87
2019-05-09T23:11:33.758Z,6.75
2019-05-09T23:14:02.180Z,6.00
2019-05-09T23:16:32.276Z,6.17
2019-05-09T23:19:00.716Z,6.12
2019-05-09T23:21:30.009Z,5.37
2019-05-09T23:24:08.646Z,5.10
2019-05-09T23:26:37.073Z,5.97
2019-05-09T23:29:05.506Z,5.03
2019-05-09T23:31:44.825Z,5.42
2019-05-09T23:34:13.250Z,5.77
2019-05-09T23:36:41.663Z,5.80
2019-05-09T23:39:17.649Z,5.78
2019-05-09T23:41:46.067Z,5.65
2019-05-09T23:44:14.528Z,5.15
2019-05-09T23:46:42.924Z,5.92
2019-05-09T23:49:11.342Z,5.40
2019-05-09T23:51:45.986Z,5.40
2019-05-09T23:54:45.147Z,5.50
2019-05-09T23:57:20.724Z,4.87
